Weather at Eros Airport

Public forecast

Using degrees Celsius for public forecast. Weather courtesy of forecast.io.

Current aviation weather report (METAR) for Eros Airport

Report is more than 6 hours old.

2022/11/14 15:00 (retrieved 2 years ago)

FYWE 141500Z 34010KT 250V010 CAVOK 31/M02 Q1020

Closest aviation forecast (TAF) to Eros Airport

Forecast is more than 12 hours old.

Closest forecast is Hosea Kutako International Airport, 23.1 nm (42.7 km) ENE.

2023/02/22 18:09 (retrieved 1 year ago)

TAF FYWB 221600Z 2218/2318 20009KT CAVOK TAF FYWH 221600Z 2218/2318 13007KT 9999 FEW050